createdAt,value
2019-03-03T00:02:34.273Z,7.06
2019-03-03T00:07:39.726Z,7.16
2019-03-03T00:12:46.354Z,7.26
2019-03-03T00:17:51.809Z,7.31
2019-03-03T00:22:57.373Z,7.35
2019-03-03T00:28:02.542Z,7.38
2019-03-03T00:33:07.791Z,7.45
2019-03-03T00:38:22.930Z,7.48
2019-03-03T00:43:39.769Z,7.55
2019-03-03T00:49:06.885Z,7.60
2019-03-03T00:54:26.733Z,7.67
2019-03-03T00:59:37.608Z,7.71
2019-03-03T01:04:53.108Z,7.78
2019-03-03T01:10:29.317Z,7.85
2019-03-03T01:15:57.286Z,7.86
2019-03-03T01:21:27.631Z,7.82
2019-03-03T01:26:32.804Z,7.82
2019-03-03T01:31:39.351Z,7.75
2019-03-03T01:36:44.439Z,7.74
2019-03-03T01:41:49.876Z,7.73
2019-03-03T01:46:55.166Z,7.66
2019-03-03T01:52:01.231Z,7.51
2019-03-03T01:57:06.315Z,7.48
2019-03-03T02:02:11.654Z,7.62
2019-03-03T02:07:16.816Z,7.64
2019-03-03T02:12:22.732Z,7.64
2019-03-03T02:17:27.901Z,7.62
2019-03-03T02:22:32.968Z,7.60
2019-03-03T02:27:38.553Z,7.68
2019-03-03T02:32:43.998Z,7.83
2019-03-03T02:37:49.511Z,7.91
2019-03-03T02:42:55.493Z,8.22
2019-03-03T02:48:01.625Z,8.18
2019-03-03T02:53:08.210Z,8.03
2019-03-03T02:58:13.439Z,7.96
2019-03-03T03:03:18.997Z,7.87
2019-03-03T03:08:37.382Z,7.87
2019-03-03T03:14:00.537Z,7.98
2019-03-03T03:19:27.721Z,7.98
2019-03-03T03:24:52.235Z,7.98
2019-03-03T03:30:20.773Z,8.03
2019-03-03T03:35:44.128Z,8.05
2019-03-03T03:41:17.667Z,8.09
2019-03-03T03:46:42.121Z,8.02
2019-03-03T03:52:06.142Z,8.04
2019-03-03T03:57:28.439Z,8.04
2019-03-03T04:02:54.926Z,8.06
2019-03-03T04:08:05.497Z,8.20
2019-03-03T04:13:15.984Z,8.22
2019-03-03T04:18:26.037Z,8.18
2019-03-03T04:23:39.999Z,8.19
2019-03-03T04:29:00.620Z,8.32
2019-03-03T04:34:13.660Z,8.30
2019-03-03T04:39:26.891Z,8.32
2019-03-03T04:44:43.313Z,8.25
2019-03-03T04:49:58.396Z,8.20
2019-03-03T04:55:26.800Z,8.17
2019-03-03T05:00:54.896Z,8.12
2019-03-03T05:06:23.022Z,8.03
2019-03-03T05:12:22.694Z,7.93
2019-03-03T05:17:44.936Z,7.94
2019-03-03T05:22:49.994Z,7.88
2019-03-03T05:27:55.197Z,7.87
2019-03-03T05:33:00.459Z,7.80
2019-03-03T05:38:05.659Z,7.76
2019-03-03T05:43:10.883Z,7.79
2019-03-03T05:48:15.872Z,7.74
2019-03-03T05:53:21.033Z,7.83
2019-03-03T05:58:26.399Z,7.80
2019-03-03T06:03:31.860Z,7.85
2019-03-03T06:08:37.407Z,7.81
2019-03-03T06:13:42.610Z,7.90
2019-03-03T06:18:48.009Z,7.94
2019-03-03T06:23:53.155Z,7.99
2019-03-03T06:28:58.298Z,8.01
2019-03-03T06:34:03.429Z,8.09
2019-03-03T06:39:09.720Z,8.00
2019-03-03T06:44:16.350Z,8.10
2019-03-03T06:49:21.846Z,8.13
2019-03-03T06:54:27.401Z,8.20
2019-03-03T06:59:32.656Z,8.24
2019-03-03T07:04:38.027Z,8.30
2019-03-03T07:09:43.010Z,8.36
2019-03-03T07:14:48.072Z,8.38
2019-03-03T07:19:53.908Z,8.50
2019-03-03T07:24:58.892Z,8.58
2019-03-03T07:30:04.954Z,8.60
2019-03-03T07:35:11.330Z,8.63
2019-03-03T07:40:16.551Z,8.64
2019-03-03T07:45:21.881Z,8.71
2019-03-03T07:50:26.988Z,8.73
2019-03-03T07:55:32.411Z,8.77
2019-03-03T08:00:37.625Z,8.80
2019-03-03T08:05:42.846Z,8.89
2019-03-03T08:10:47.983Z,8.92
2019-03-03T08:15:53.125Z,8.96
2019-03-03T08:20:58.483Z,8.98
2019-03-03T08:26:04.470Z,9.01
2019-03-03T08:31:10.962Z,9.09
2019-03-03T08:36:17.308Z,9.21
2019-03-03T08:41:22.531Z,9.30
2019-03-03T08:46:46.648Z,9.37
2019-03-03T08:52:10.720Z,9.43
2019-03-03T08:57:41.037Z,9.53
2019-03-03T09:02:57.963Z,9.57
2019-03-03T09:08:10.784Z,9.66
2019-03-03T09:13:43.889Z,9.72
2019-03-03T09:19:13.971Z,9.83
2019-03-03T09:24:47.102Z,9.90
2019-03-03T09:30:20.074Z,9.98
2019-03-03T09:35:39.029Z,10.03
2019-03-03T09:40:52.278Z,10.03
2019-03-03T09:46:12.990Z,10.14
2019-03-03T09:51:47.333Z,10.15
2019-03-03T09:57:24.515Z,10.03
2019-03-03T10:02:36.341Z,10.00
2019-03-03T10:07:56.927Z,10.00
2019-03-03T10:13:08.064Z,9.94
2019-03-03T10:18:26.480Z,9.98
2019-03-03T10:23:42.834Z,10.00
2019-03-03T10:29:06.162Z,10.03
2019-03-03T10:34:35.956Z,10.11
2019-03-03T10:40:04.762Z,10.20
2019-03-03T10:45:18.511Z,10.25
2019-03-03T10:50:37.318Z,10.22
2019-03-03T10:56:01.372Z,10.26
2019-03-03T11:01:24.162Z,10.33
2019-03-03T11:06:38.867Z,10.37
2019-03-03T11:12:01.938Z,10.40
2019-03-03T11:17:29.092Z,10.46
2019-03-03T11:23:04.032Z,10.56
2019-03-03T11:28:29.143Z,10.62
2019-03-03T11:33:52.268Z,10.48
2019-03-03T11:39:13.873Z,10.37
2019-03-03T11:44:54.050Z,10.28
2019-03-03T11:50:21.098Z,10.26
2019-03-03T11:55:31.289Z,10.26
2019-03-03T12:00:50.435Z,10.16
2019-03-03T12:06:12.914Z,10.23
2019-03-03T12:11:27.078Z,10.24
2019-03-03T12:16:54.688Z,10.34
2019-03-03T12:22:24.912Z,10.31
2019-03-03T12:27:38.005Z,10.35
2019-03-03T12:33:07.606Z,10.38
2019-03-03T12:38:34.872Z,10.43
2019-03-03T12:43:48.400Z,10.43
2019-03-03T12:49:22.310Z,10.39
2019-03-03T12:54:45.444Z,10.34
2019-03-03T13:00:12.494Z,10.42
2019-03-03T13:05:38.434Z,10.46
2019-03-03T13:11:00.765Z,10.46
2019-03-03T13:16:17.989Z,10.60
2019-03-03T13:21:48.470Z,10.61
2019-03-03T13:27:05.265Z,10.49
2019-03-03T13:32:17.122Z,10.49
2019-03-03T13:37:43.305Z,10.50
2019-03-03T13:42:57.503Z,10.56
2019-03-03T13:48:04.068Z,10.62
2019-03-03T13:53:09.322Z,10.58
2019-03-03T13:58:14.874Z,10.57
2019-03-03T14:03:20.754Z,10.61
2019-03-03T14:08:25.973Z,10.64
2019-03-03T14:13:31.524Z,10.62
2019-03-03T14:18:38.063Z,10.61
2019-03-03T14:23:43.273Z,10.62
2019-03-03T14:28:48.808Z,10.61
2019-03-03T14:33:55.523Z,10.60
2019-03-03T14:39:02.074Z,10.66
2019-03-03T14:44:08.924Z,10.60
2019-03-03T14:49:14.157Z,10.57
2019-03-03T14:54:19.695Z,10.41
2019-03-03T14:59:25.783Z,10.26
2019-03-03T15:04:31.001Z,10.24
2019-03-03T15:09:36.548Z,10.08
2019-03-03T15:14:42.529Z,9.96
2019-03-03T15:19:47.740Z,9.98
2019-03-03T15:24:53.173Z,9.94
2019-03-03T15:29:58.406Z,9.92
2019-03-03T15:35:03.653Z,9.85
2019-03-03T15:40:10.150Z,9.70
2019-03-03T15:45:17.908Z,9.59
2019-03-03T15:50:23.665Z,9.52
2019-03-03T15:55:29.141Z,9.51
2019-03-03T16:00:34.405Z,9.55
2019-03-03T16:05:40.069Z,9.60
2019-03-03T16:10:45.739Z,9.64
2019-03-03T16:15:53.430Z,9.76
2019-03-03T16:20:58.933Z,9.79
2019-03-03T16:26:04.524Z,9.84
2019-03-03T16:31:09.721Z,9.73
2019-03-03T16:36:14.792Z,9.88
2019-03-03T16:41:20.002Z,9.79
2019-03-03T16:46:25.518Z,9.84
2019-03-03T16:51:30.760Z,9.76
2019-03-03T16:56:37.176Z,9.75
2019-03-03T17:01:42.484Z,9.80
2019-03-03T17:06:47.697Z,9.87
2019-03-03T17:11:52.989Z,9.75
2019-03-03T17:16:58.201Z,9.73
2019-03-03T17:22:03.304Z,9.81
2019-03-03T17:27:08.833Z,9.76
2019-03-03T17:32:14.124Z,9.85
2019-03-03T17:37:19.163Z,10.01
2019-03-03T17:42:24.675Z,10.05
2019-03-03T17:47:29.959Z,10.05
2019-03-03T17:52:35.248Z,10.00
2019-03-03T17:57:40.589Z,9.96
2019-03-03T18:02:46.604Z,9.96
2019-03-03T18:07:52.382Z,9.95
2019-03-03T18:12:57.537Z,9.88
2019-03-03T18:18:03.121Z,9.81
2019-03-03T18:23:08.670Z,9.79
2019-03-03T18:28:13.811Z,9.85
2019-03-03T18:33:18.962Z,9.89
2019-03-03T18:38:24.568Z,9.97
2019-03-03T18:43:30.131Z,9.98
2019-03-03T18:48:35.685Z,9.89
2019-03-03T18:53:40.934Z,9.93
2019-03-03T18:58:48.035Z,9.98
2019-03-03T19:03:54.232Z,10.02
2019-03-03T19:08:59.761Z,10.04
2019-03-03T19:14:06.849Z,10.05
2019-03-03T19:19:12.263Z,10.02
2019-03-03T19:24:19.667Z,10.05
2019-03-03T19:29:24.974Z,10.09
2019-03-03T19:34:30.201Z,10.10
2019-03-03T19:39:35.381Z,10.11
2019-03-03T19:44:40.606Z,10.16
2019-03-03T19:49:45.751Z,10.16
2019-03-03T19:54:51.186Z,10.16
2019-03-03T19:59:57.388Z,10.08
2019-03-03T20:05:02.753Z,10.11
2019-03-03T20:10:08.867Z,10.06
2019-03-03T20:15:15.031Z,10.03
2019-03-03T20:20:20.397Z,10.01
2019-03-03T20:25:26.939Z,10.05
2019-03-03T20:30:32.230Z,10.12
2019-03-03T20:35:38.833Z,10.23
2019-03-03T20:40:44.581Z,10.18
2019-03-03T20:45:50.386Z,10.23
2019-03-03T20:50:55.574Z,10.26
2019-03-03T20:56:01.097Z,10.10
2019-03-03T21:01:06.561Z,10.09
2019-03-03T21:06:12.009Z,10.06
2019-03-03T21:11:18.337Z,10.04
2019-03-03T21:16:23.332Z,10.04
2019-03-03T21:21:28.481Z,10.04
2019-03-03T21:26:34.208Z,9.95
2019-03-03T21:31:39.470Z,9.90
2019-03-03T21:36:44.725Z,9.86
2019-03-03T21:41:49.891Z,9.81
2019-03-03T21:46:55.534Z,9.74
2019-03-03T21:52:01.508Z,9.62
2019-03-03T21:57:08.635Z,9.60
2019-03-03T22:02:13.867Z,9.62
2019-03-03T22:07:19.735Z,9.46
2019-03-03T22:12:25.306Z,9.36
2019-03-03T22:17:30.466Z,9.31
2019-03-03T22:22:35.714Z,9.23
2019-03-03T22:27:41.174Z,9.26
2019-03-03T22:32:47.467Z,9.20
2019-03-03T22:37:52.751Z,9.28
2019-03-03T22:42:58.954Z,9.31
2019-03-03T22:48:04.592Z,9.45
2019-03-03T22:53:09.764Z,9.53
2019-03-03T22:58:15.127Z,9.61
2019-03-03T23:03:26.949Z,9.59
2019-03-03T23:08:49.612Z,9.58
2019-03-03T23:14:46.178Z,9.57
2019-03-03T23:20:19.469Z,9.43
2019-03-03T23:25:59.539Z,9.42
2019-03-03T23:31:05.020Z,9.47
2019-03-03T23:36:10.163Z,9.51
2019-03-03T23:41:15.511Z,9.35
2019-03-03T23:46:20.843Z,9.53
2019-03-03T23:51:26.335Z,9.64
2019-03-03T23:56:31.833Z,9.71
